Angoon, AK (99820)

11:13 AM AKST on December 21, 2014 (GMT -0900)
Angoon | Change Station
CLOSE
Current Station
Airport
Location: Angoon,
Elevation: 0 ft
Nearby Weather Stations

Elev 0 ft 57.50 °N, 134.59 °W | Updated 17 minutes ago

Light Rain
Light Rain
39 °F
Feels Like 35 °F
N
5
Wind Variable Wind from East

Today
High -- | Low -- °F
--% Chance of Precip.
Yesterday
High -- | Low -- °F
Precip. -- in
8:38 AM 3:14 PM
Waning Crescent, 0% visible
Pressure 29.41 in
Visibility 10.0 miles
Clouds Scattered Clouds 3400 ft
Scattered Clouds 7000 ft
Windchill 35 °F
Dew Point 37 °F
Humidity 93%
Rainfall 0.02 in
Snow Depth Not available.
UV 0 out of 12
Pollen Not available.
Air Quality Not available.
Flu Activity Not available.
METAR PAGN 211956Z AUTO 10004KT 10SM -RA SCT034 SCT070 04/03 A2940 RMK AO2 TSNO T00380027 RAB55 P0000 SLP957 $

More Conditions Fewer Conditions

Pressure 29.41 in
Visibility 10.0 miles
Clouds Scattered Clouds 3400 ft
Scattered Clouds 7000 ft
Windchill 35 °F
Dew Point 37 °F
Humidity 93%
Rainfall 0.02 in
Snow Depth Not available.
UV 0 out of 12
Pollen Not available.
Air Quality Not available.
Flu Activity Not available.
METAR PAGN 211956Z AUTO 10004KT 10SM -RA SCT034 SCT070 04/03 A2940 RMK AO2 TSNO T00380027 RAB55 P0000 SLP957 $

More Conditions Fewer Conditions

10-Day Weather Forecast

Almanac

Astronomy

Dec. 21, 2014 Rise Set
Actual Time
Civil Twilight
Nautical Twilight
Astronomical Twilight
Moon
Length of Visible Light
Length of Day
Tomorrow will be .
, % of the Moon is Illuminated

Today's Extremes

State Highs State Lows

Community

WunderPhotos

Upload Photos

1,779,469 photos uploaded!

WunderBlogs® & News

Nearby

Air Quality

  Air Quality AQ Index Pollutant
Not available.

Snow Depth

Station Depth Elevation

Earthquake Activity

City Distance Mag. Time & Date
Minimum magnitude displayed is 2.5.

Coastal Water Temperatures

Place Temperature

Nearby Weather Stations